createdAt,value
2022-12-23T00:00:22.103Z,9.70
2022-12-23T00:02:50.586Z,9.70
2022-12-23T00:05:19.296Z,9.70
2022-12-23T00:07:47.705Z,9.70
2022-12-23T00:10:16.006Z,9.80
2022-12-23T00:13:01.794Z,9.80
2022-12-23T00:15:31.635Z,9.80
2022-12-23T00:18:00.166Z,9.80
2022-12-23T00:20:28.527Z,9.80
2022-12-23T00:23:09.031Z,9.80
2022-12-23T00:25:44.757Z,9.80
2022-12-23T00:28:16.270Z,9.80
2022-12-23T00:30:51.631Z,9.70
2022-12-23T00:33:22.847Z,9.80
2022-12-23T00:35:52.198Z,9.70
2022-12-23T00:38:42.426Z,9.80
2022-12-23T00:41:27.367Z,9.70
2022-12-23T00:43:55.848Z,9.80
2022-12-23T00:46:25.702Z,9.80
2022-12-23T00:49:11.596Z,9.80
2022-12-23T00:51:39.992Z,9.80
2022-12-23T00:54:09.093Z,9.80
2022-12-23T00:56:37.580Z,9.80
2022-12-23T00:59:06.282Z,9.80
2022-12-23T01:01:53.559Z,9.80
2022-12-23T01:04:39.544Z,9.80
2022-12-23T01:07:08.605Z,9.80
2022-12-23T01:09:37.721Z,9.80
2022-12-23T01:12:07.006Z,9.80
2022-12-23T01:14:35.582Z,9.80
2022-12-23T01:17:06.991Z,9.80
2022-12-23T01:19:35.428Z,9.80
2022-12-23T01:22:03.896Z,9.80
2022-12-23T01:24:33.454Z,9.80
2022-12-23T01:27:02.272Z,9.80
2022-12-23T01:29:30.760Z,9.80
2022-12-23T01:31:59.193Z,9.80
2022-12-23T01:34:36.146Z,9.90
2022-12-23T01:37:06.199Z,9.80
2022-12-23T01:39:34.797Z,9.80
2022-12-23T01:42:20.383Z,9.80
2022-12-23T01:44:57.579Z,9.90
2022-12-23T01:47:34.091Z,9.80
2022-12-23T01:50:10.413Z,9.80
2022-12-23T01:52:46.305Z,9.80
2022-12-23T01:55:16.389Z,9.90
2022-12-23T01:57:46.110Z,9.90
2022-12-23T02:00:33.211Z,9.90
2022-12-23T02:03:19.071Z,9.90
2022-12-23T02:05:49.775Z,9.90
2022-12-23T02:08:37.508Z,9.90
2022-12-23T02:11:32.004Z,9.90
2022-12-23T02:14:35.756Z,9.90
2022-12-23T02:17:16.265Z,9.90
2022-12-23T02:20:46.636Z,9.90
2022-12-23T02:24:01.680Z,9.90
2022-12-23T02:27:21.210Z,9.80
2022-12-23T02:30:26.983Z,9.90
2022-12-23T02:33:30.920Z,9.90
2022-12-23T02:36:19.599Z,9.90
2022-12-23T02:38:59.906Z,9.80
2022-12-23T02:41:37.979Z,9.90
2022-12-23T02:44:15.263Z,9.90
2022-12-23T02:46:49.476Z,9.90
2022-12-23T02:49:25.506Z,9.80
2022-12-23T02:51:57.753Z,9.90
2022-12-23T02:54:31.648Z,9.80
2022-12-23T02:57:02.687Z,9.90
2022-12-23T02:59:34.254Z,9.80
2022-12-23T03:02:04.151Z,9.80
2022-12-23T03:04:32.837Z,9.80
2022-12-23T03:07:07.200Z,9.90
2022-12-23T03:09:48.761Z,9.90
2022-12-23T03:12:28.680Z,9.80
2022-12-23T03:15:17.073Z,9.80
2022-12-23T03:18:00.184Z,9.80
2022-12-23T03:20:40.005Z,9.80
2022-12-23T03:23:20.326Z,9.80
2022-12-23T03:25:58.687Z,9.90
2022-12-23T03:28:34.871Z,9.80
2022-12-23T03:31:05.511Z,9.80
2022-12-23T03:33:39.174Z,9.80
2022-12-23T03:36:16.576Z,9.90
2022-12-23T03:38:46.611Z,9.80
2022-12-23T03:41:21.286Z,9.80
2022-12-23T03:43:56.183Z,9.80
2022-12-23T03:46:32.353Z,9.80
2022-12-23T03:49:06.691Z,9.80
2022-12-23T03:51:42.050Z,9.80
2022-12-23T03:54:16.682Z,9.80
2022-12-23T03:56:49.240Z,9.80
2022-12-23T03:59:23.643Z,9.80
2022-12-23T04:02:02.721Z,9.80
2022-12-23T04:04:49.613Z,9.80
2022-12-23T04:07:23.342Z,9.80
2022-12-23T04:09:54.063Z,9.80
2022-12-23T04:12:25.681Z,9.80
2022-12-23T04:14:54.105Z,9.80
2022-12-23T04:17:22.463Z,9.70
2022-12-23T04:19:53.404Z,9.70
2022-12-23T04:22:21.826Z,9.70
2022-12-23T04:24:50.128Z,9.70
2022-12-23T04:27:18.802Z,9.70
2022-12-23T04:29:47.289Z,9.70
2022-12-23T04:32:16.068Z,9.70
2022-12-23T04:34:44.503Z,9.70
2022-12-23T04:37:14.190Z,9.70
2022-12-23T04:39:42.520Z,9.70
2022-12-23T04:42:10.854Z,9.70
2022-12-23T04:44:39.187Z,9.70
2022-12-23T04:47:07.542Z,9.70
2022-12-23T04:49:35.983Z,9.70
2022-12-23T04:52:04.348Z,9.70
2022-12-23T04:54:34.445Z,9.70
2022-12-23T04:57:02.819Z,9.70
2022-12-23T04:59:32.476Z,9.70
2022-12-23T05:02:00.977Z,9.70
2022-12-23T05:04:29.935Z,9.70
2022-12-23T05:06:58.385Z,9.70
2022-12-23T05:09:26.739Z,9.70
2022-12-23T05:11:56.566Z,9.70
2022-12-23T05:14:24.843Z,9.70
2022-12-23T05:16:53.668Z,9.70
2022-12-23T05:19:22.018Z,9.70
2022-12-23T05:21:50.402Z,9.70
2022-12-23T05:24:18.801Z,9.70
2022-12-23T05:26:52.870Z,9.60
2022-12-23T05:29:27.571Z,9.70
2022-12-23T05:31:55.945Z,9.70
2022-12-23T05:34:24.425Z,9.70
2022-12-23T05:36:52.757Z,9.70
2022-12-23T05:39:21.218Z,9.70
2022-12-23T05:41:49.523Z,9.70
2022-12-23T05:44:17.799Z,9.70
2022-12-23T05:46:47.491Z,9.60
2022-12-23T05:49:15.919Z,9.60
2022-12-23T05:51:44.183Z,9.60
2022-12-23T05:54:12.541Z,9.60
2022-12-23T05:56:40.847Z,9.70
2022-12-23T05:59:10.206Z,9.70
2022-12-23T06:01:38.596Z,9.60
2022-12-23T06:04:08.583Z,9.60
2022-12-23T06:06:37.305Z,9.60
2022-12-23T06:09:05.608Z,9.60
2022-12-23T06:11:34.077Z,9.60
2022-12-23T06:14:02.787Z,9.60
2022-12-23T06:16:31.202Z,9.60
2022-12-23T06:18:59.578Z,9.60
2022-12-23T06:21:29.267Z,9.60
2022-12-23T06:23:57.578Z,9.60
2022-12-23T06:26:26.371Z,9.60
2022-12-23T06:28:54.645Z,9.60
2022-12-23T06:31:23.034Z,9.60
2022-12-23T06:33:51.338Z,9.60
2022-12-23T06:36:20.359Z,9.50
2022-12-23T06:38:50.003Z,9.50
2022-12-23T06:41:18.822Z,9.50
2022-12-23T06:43:52.538Z,9.50
2022-12-23T06:46:22.713Z,9.50
2022-12-23T06:48:51.181Z,9.50
2022-12-23T06:51:19.519Z,9.50
2022-12-23T06:53:49.313Z,9.50
2022-12-23T06:56:17.673Z,9.50
2022-12-23T06:58:46.339Z,9.50
2022-12-23T07:01:15.311Z,9.50
2022-12-23T07:03:43.715Z,9.50
2022-12-23T07:06:12.137Z,9.50
2022-12-23T07:08:40.504Z,9.50
2022-12-23T07:11:10.251Z,9.50
2022-12-23T07:13:38.499Z,9.50
2022-12-23T07:16:08.591Z,9.50
2022-12-23T07:18:37.354Z,9.40
2022-12-23T07:21:10.581Z,9.50
2022-12-23T07:23:43.990Z,9.40
2022-12-23T07:26:13.764Z,9.40
2022-12-23T07:28:42.222Z,9.40
2022-12-23T07:31:10.528Z,9.50
2022-12-23T07:33:38.788Z,9.40
2022-12-23T07:36:07.995Z,9.50
2022-12-23T07:38:36.351Z,9.40
2022-12-23T07:41:04.825Z,9.40
2022-12-23T07:43:34.638Z,9.40
2022-12-23T07:46:08.416Z,9.40
2022-12-23T07:48:37.091Z,9.40
2022-12-23T07:51:06.043Z,9.40
2022-12-23T07:53:34.394Z,9.40
2022-12-23T07:56:02.800Z,9.40
2022-12-23T07:58:31.108Z,9.40
2022-12-23T08:01:07.992Z,9.40
2022-12-23T08:03:38.244Z,9.40
2022-12-23T08:06:12.359Z,9.40
2022-12-23T08:08:41.971Z,9.40
2022-12-23T08:11:12.502Z,9.40
2022-12-23T08:13:43.588Z,9.50
2022-12-23T08:16:13.307Z,9.40
2022-12-23T08:18:43.224Z,9.40
2022-12-23T08:21:15.794Z,9.40
2022-12-23T08:23:44.899Z,9.50
2022-12-23T08:26:16.065Z,9.40
2022-12-23T08:28:45.469Z,9.50
2022-12-23T08:31:18.120Z,9.40
2022-12-23T08:33:49.885Z,9.50
2022-12-23T08:36:23.414Z,9.50
2022-12-23T08:38:54.083Z,9.50
2022-12-23T08:41:26.364Z,9.40
2022-12-23T08:43:55.138Z,9.50
2022-12-23T08:46:25.814Z,9.40
2022-12-23T08:48:55.435Z,9.50
2022-12-23T08:51:26.196Z,9.50
2022-12-23T08:54:00.657Z,9.40
2022-12-23T08:56:32.945Z,9.50
2022-12-23T08:59:02.273Z,9.40
2022-12-23T09:01:34.779Z,9.40
2022-12-23T09:04:04.736Z,9.40
2022-12-23T09:06:38.075Z,9.50
2022-12-23T09:09:07.141Z,9.40
2022-12-23T09:11:36.209Z,9.50
2022-12-23T09:14:05.516Z,9.40
2022-12-23T09:16:35.381Z,9.50
2022-12-23T09:19:03.873Z,9.50
2022-12-23T09:21:32.193Z,9.40
2022-12-23T09:24:00.577Z,9.50
2022-12-23T09:26:30.953Z,9.40
2022-12-23T09:28:59.607Z,9.50
2022-12-23T09:31:35.855Z,9.50
2022-12-23T09:34:07.143Z,9.50
2022-12-23T09:36:35.614Z,9.50
2022-12-23T09:39:04.811Z,9.50
2022-12-23T09:41:53.336Z,9.50
2022-12-23T09:44:50.200Z,9.50
2022-12-23T09:47:22.500Z,9.50
2022-12-23T09:49:56.122Z,9.50
2022-12-23T09:52:32.022Z,9.50
2022-12-23T09:55:00.843Z,9.50
2022-12-23T09:57:37.476Z,9.50
2022-12-23T10:00:13.001Z,9.50
2022-12-23T10:03:00.560Z,9.50
2022-12-23T10:05:42.894Z,9.50
2022-12-23T10:08:18.509Z,9.50
2022-12-23T10:10:50.990Z,9.60
2022-12-23T10:13:27.191Z,9.60
2022-12-23T10:15:59.820Z,9.60
2022-12-23T10:18:42.231Z,9.60
2022-12-23T10:21:17.428Z,9.60
2022-12-23T10:23:52.114Z,9.60
2022-12-23T10:26:26.915Z,9.60
2022-12-23T10:29:01.508Z,9.70
2022-12-23T10:31:42.470Z,9.60
2022-12-23T10:34:19.900Z,9.70
2022-12-23T10:37:01.151Z,9.60
2022-12-23T10:39:38.669Z,9.70
2022-12-23T10:42:20.059Z,9.70
2022-12-23T10:45:33.283Z,9.70
2022-12-23T10:48:18.421Z,9.70
2022-12-23T10:50:57.124Z,9.60
2022-12-23T10:53:40.260Z,9.70
2022-12-23T10:56:10.390Z,9.70
2022-12-23T10:58:42.633Z,9.70
2022-12-23T11:01:23.798Z,9.60
2022-12-23T11:04:04.634Z,9.70
2022-12-23T11:06:37.748Z,9.70
2022-12-23T11:09:14.038Z,9.70
2022-12-23T11:11:57.553Z,9.60
2022-12-23T11:14:39.987Z,9.60
2022-12-23T11:17:21.299Z,9.60
2022-12-23T11:19:50.057Z,9.60
2022-12-23T11:22:25.822Z,9.60
2022-12-23T11:24:55.457Z,9.60
2022-12-23T11:27:23.883Z,9.70
2022-12-23T11:29:56.104Z,9.70
2022-12-23T11:32:27.975Z,9.70
2022-12-23T11:34:57.894Z,9.70
2022-12-23T11:37:33.459Z,9.80
2022-12-23T11:40:05.558Z,9.80
2022-12-23T11:42:36.245Z,9.70
2022-12-23T11:45:09.514Z,9.80
2022-12-23T11:47:41.135Z,9.70
2022-12-23T11:50:33.003Z,9.70
2022-12-23T11:53:20.133Z,9.70
2022-12-23T11:56:00.635Z,9.70
2022-12-23T11:58:31.386Z,9.70
2022-12-23T12:01:02.516Z,9.70
2022-12-23T12:03:34.178Z,9.70
2022-12-23T12:06:05.748Z,9.70
2022-12-23T12:08:37.917Z,9.60
2022-12-23T12:11:14.776Z,9.60
2022-12-23T12:13:45.473Z,9.60
2022-12-23T12:16:27.820Z,9.60
2022-12-23T12:18:59.456Z,9.60
2022-12-23T12:21:34.416Z,9.50
2022-12-23T12:24:18.384Z,9.50
2022-12-23T12:26:53.276Z,9.50
2022-12-23T12:29:28.305Z,9.50
2022-12-23T12:31:59.813Z,9.50
2022-12-23T12:34:43.779Z,9.50
2022-12-23T12:37:24.247Z,9.50
2022-12-23T12:39:57.257Z,9.50
2022-12-23T12:42:33.959Z,9.50
2022-12-23T12:45:16.045Z,9.50
2022-12-23T12:47:56.846Z,9.40
2022-12-23T12:50:32.831Z,9.40
2022-12-23T12:53:11.647Z,9.40
2022-12-23T12:55:46.336Z,9.40
2022-12-23T12:58:22.023Z,9.40
2022-12-23T13:01:25.069Z,9.40
2022-12-23T13:04:22.706Z,9.40
2022-12-23T13:07:03.423Z,9.40
2022-12-23T13:09:44.916Z,9.40
2022-12-23T13:12:35.322Z,9.30
2022-12-23T13:15:15.986Z,9.30
2022-12-23T13:17:55.795Z,9.30
2022-12-23T13:20:35.345Z,9.30
2022-12-23T13:23:41.793Z,9.30
2022-12-23T13:26:09.245Z,9.30
2022-12-23T13:28:46.821Z,9.30
2022-12-23T13:31:29.248Z,9.30
2022-12-23T13:34:06.153Z,9.30
2022-12-23T13:36:46.703Z,9.20
2022-12-23T13:39:31.855Z,9.20
2022-12-23T13:42:05.705Z,9.30
2022-12-23T13:44:36.432Z,9.30
2022-12-23T13:47:15.287Z,9.20
2022-12-23T13:49:58.368Z,9.20
2022-12-23T13:52:41.588Z,9.20
2022-12-23T13:55:24.894Z,9.20
2022-12-23T13:58:01.829Z,9.20
2022-12-23T14:00:33.951Z,9.20
2022-12-23T14:03:24.872Z,9.20
2022-12-23T14:05:54.509Z,9.10
2022-12-23T14:08:33.127Z,9.10
2022-12-23T14:11:04.252Z,9.10
2022-12-23T14:13:42.161Z,9.10
2022-12-23T14:16:49.651Z,9.10
2022-12-23T14:19:43.555Z,9.10
2022-12-23T14:22:34.182Z,9.10
2022-12-23T14:25:53.498Z,9.20
2022-12-23T14:28:41.223Z,9.20
2022-12-23T14:31:32.058Z,9.20
2022-12-23T14:34:28.762Z,9.20
2022-12-23T14:37:40.300Z,9.20
2022-12-23T14:40:51.633Z,9.20
2022-12-23T14:43:52.732Z,9.20
2022-12-23T14:46:58.163Z,9.20
2022-12-23T14:49:44.771Z,9.30
2022-12-23T14:53:01.638Z,9.30
2022-12-23T14:55:44.445Z,9.40
2022-12-23T14:58:42.407Z,9.50
2022-12-23T15:01:13.982Z,9.60
2022-12-23T15:03:47.082Z,9.70
2022-12-23T15:06:28.453Z,9.90
2022-12-23T15:08:58.249Z,10.10
2022-12-23T15:11:30.360Z,10.20
2022-12-23T15:14:01.346Z,10.20
2022-12-23T15:16:33.640Z,10.30
2022-12-23T15:19:17.336Z,10.30
2022-12-23T15:21:51.608Z,10.40
2022-12-23T15:24:26.561Z,10.40
2022-12-23T15:27:25.273Z,10.50
2022-12-23T15:29:49.459Z,10.50
2022-12-23T15:32:18.902Z,10.50
2022-12-23T15:34:50.094Z,10.60
2022-12-23T15:37:26.635Z,10.60
2022-12-23T15:40:03.393Z,10.70
2022-12-23T15:42:35.584Z,10.70
2022-12-23T15:45:33.792Z,10.70
2022-12-23T15:48:03.012Z,10.80
2022-12-23T15:50:41.620Z,10.80
2022-12-23T15:53:18.590Z,11.00
2022-12-23T15:55:50.508Z,11.10
2022-12-23T15:58:24.401Z,11.10
2022-12-23T16:00:57.487Z,11.20
2022-12-23T16:03:32.884Z,11.30
2022-12-23T16:06:18.966Z,11.30
2022-12-23T16:08:58.905Z,11.40
2022-12-23T16:11:51.394Z,11.50
2022-12-23T16:14:37.054Z,11.50
2022-12-23T16:17:18.318Z,11.60
2022-12-23T16:19:48.929Z,11.70
2022-12-23T16:22:28.046Z,11.70
2022-12-23T16:25:13.660Z,11.70
2022-12-23T16:27:45.268Z,11.70
2022-12-23T16:30:20.529Z,11.70
2022-12-23T16:32:55.737Z,11.70
2022-12-23T16:35:40.012Z,11.70
2022-12-23T16:38:18.214Z,11.70
2022-12-23T16:40:51.295Z,11.70
2022-12-23T16:43:20.628Z,11.70
2022-12-23T16:45:53.113Z,11.70
2022-12-23T16:48:30.365Z,11.60
2022-12-23T16:50:59.266Z,11.60
2022-12-23T16:53:27.616Z,11.60
2022-12-23T16:56:00.927Z,11.60
2022-12-23T16:58:29.772Z,11.60
2022-12-23T17:00:58.442Z,11.60
2022-12-23T17:03:26.796Z,11.60
2022-12-23T17:05:55.198Z,11.60
2022-12-23T17:08:23.480Z,11.60
2022-12-23T17:10:52.145Z,11.50
2022-12-23T17:13:22.326Z,11.60
2022-12-23T17:15:51.375Z,11.60
2022-12-23T17:18:19.889Z,11.50
2022-12-23T17:20:50.149Z,11.50
2022-12-23T17:23:28.419Z,11.50
2022-12-23T17:25:57.013Z,11.50
2022-12-23T17:28:32.516Z,11.40
2022-12-23T17:31:01.872Z,11.40
2022-12-23T17:33:33.121Z,11.30
2022-12-23T17:36:02.143Z,11.30
2022-12-23T17:38:30.516Z,11.30
2022-12-23T17:40:59.611Z,11.30
2022-12-23T17:43:29.382Z,11.30
2022-12-23T17:45:57.756Z,11.20
2022-12-23T17:48:31.364Z,11.20
2022-12-23T17:51:00.337Z,11.20
2022-12-23T17:53:28.747Z,11.20
2022-12-23T17:55:57.189Z,11.20
2022-12-23T17:58:25.504Z,11.20
2022-12-23T18:00:55.644Z,11.10
2022-12-23T18:03:25.188Z,11.10
2022-12-23T18:06:01.292Z,11.10
2022-12-23T18:08:30.591Z,11.10
2022-12-23T18:11:00.676Z,11.00
2022-12-23T18:13:29.010Z,11.00
2022-12-23T18:15:58.723Z,11.00
2022-12-23T18:18:35.622Z,11.00
2022-12-23T18:21:10.370Z,11.00
2022-12-23T18:23:38.769Z,11.00
2022-12-23T18:26:07.129Z,11.00
2022-12-23T18:28:35.526Z,11.00
2022-12-23T18:31:05.501Z,11.00
2022-12-23T18:33:33.875Z,11.00
2022-12-23T18:36:02.352Z,11.00
2022-12-23T18:38:30.668Z,11.00
2022-12-23T18:40:59.018Z,11.00
2022-12-23T18:43:28.419Z,10.90
2022-12-23T18:45:57.086Z,10.90
2022-12-23T18:48:26.859Z,10.90
2022-12-23T18:50:55.166Z,10.80
2022-12-23T18:53:25.476Z,10.80
2022-12-23T18:55:55.870Z,10.80
2022-12-23T18:58:25.594Z,10.80
2022-12-23T19:00:54.313Z,10.70
2022-12-23T19:03:27.320Z,10.80
2022-12-23T19:05:57.356Z,10.80
2022-12-23T19:08:28.003Z,10.80
2022-12-23T19:10:57.237Z,10.80
2022-12-23T19:13:25.586Z,10.80
2022-12-23T19:15:54.147Z,10.80
2022-12-23T19:18:23.830Z,10.80
2022-12-23T19:20:53.547Z,10.80
2022-12-23T19:23:21.846Z,10.80
2022-12-23T19:25:55.170Z,10.80
2022-12-23T19:28:24.166Z,10.80
2022-12-23T19:30:52.846Z,10.80
2022-12-23T19:33:21.203Z,10.80
2022-12-23T19:35:49.532Z,10.70
2022-12-23T19:38:19.270Z,10.70
2022-12-23T19:40:57.423Z,10.70
2022-12-23T19:43:25.940Z,10.80
2022-12-23T19:45:59.441Z,10.70
2022-12-23T19:48:27.904Z,10.70
2022-12-23T19:51:00.752Z,10.60
2022-12-23T19:53:31.042Z,10.60
2022-12-23T19:56:00.686Z,10.70
2022-12-23T19:58:32.569Z,10.70
2022-12-23T20:01:09.775Z,10.70
2022-12-23T20:03:38.546Z,10.70
2022-12-23T20:06:09.544Z,10.60
2022-12-23T20:08:39.231Z,10.60
2022-12-23T20:11:10.198Z,10.60
2022-12-23T20:13:39.209Z,10.60
2022-12-23T20:16:09.480Z,10.60
2022-12-23T20:18:38.403Z,10.60
2022-12-23T20:21:08.154Z,10.60
2022-12-23T20:23:38.437Z,10.60
2022-12-23T20:26:07.379Z,10.50
2022-12-23T20:28:35.977Z,10.50
2022-12-23T20:31:09.200Z,10.60
2022-12-23T20:33:38.703Z,10.60
2022-12-23T20:36:08.908Z,10.60
2022-12-23T20:38:41.111Z,10.60
2022-12-23T20:41:12.159Z,10.60
2022-12-23T20:43:40.420Z,10.60
2022-12-23T20:46:13.150Z,10.60
2022-12-23T20:48:42.270Z,10.60
2022-12-23T20:51:14.731Z,10.60
2022-12-23T20:53:44.846Z,10.50
2022-12-23T20:56:16.422Z,10.60
2022-12-23T20:58:57.831Z,10.60
2022-12-23T21:01:29.953Z,10.60
2022-12-23T21:04:00.915Z,10.60
2022-12-23T21:06:30.448Z,10.60
2022-12-23T21:09:01.417Z,10.60
2022-12-23T21:11:30.892Z,10.50
2022-12-23T21:14:06.415Z,10.50
2022-12-23T21:16:37.743Z,10.50
2022-12-23T21:19:08.433Z,10.50
2022-12-23T21:21:36.819Z,10.50
2022-12-23T21:24:07.480Z,10.50
2022-12-23T21:26:36.360Z,10.50
2022-12-23T21:29:07.680Z,10.40
2022-12-23T21:31:38.946Z,10.40
2022-12-23T21:34:07.576Z,10.40
2022-12-23T21:36:39.377Z,10.40
2022-12-23T21:39:12.482Z,10.40
2022-12-23T21:41:42.185Z,10.30
2022-12-23T21:44:13.823Z,10.30
2022-12-23T21:46:42.194Z,10.30
2022-12-23T21:49:12.144Z,10.30
2022-12-23T21:51:41.723Z,10.30
2022-12-23T21:54:13.505Z,10.30
2022-12-23T21:56:42.886Z,10.30
2022-12-23T21:59:14.678Z,10.20
2022-12-23T22:01:43.839Z,10.30
2022-12-23T22:04:13.067Z,10.30
2022-12-23T22:06:44.679Z,10.30
2022-12-23T22:09:17.717Z,10.30
2022-12-23T22:11:47.655Z,10.30
2022-12-23T22:14:18.850Z,10.20
2022-12-23T22:16:47.383Z,10.30
2022-12-23T22:19:16.363Z,10.30
2022-12-23T22:21:44.744Z,10.30
2022-12-23T22:24:14.449Z,10.30
2022-12-23T22:26:43.022Z,10.20
2022-12-23T22:29:12.242Z,10.20
2022-12-23T22:31:44.068Z,10.20
2022-12-23T22:34:16.293Z,10.10
2022-12-23T22:36:44.898Z,10.20
2022-12-23T22:39:20.501Z,10.20
2022-12-23T22:41:50.122Z,10.20
2022-12-23T22:44:18.804Z,10.20
2022-12-23T22:46:47.313Z,10.20
2022-12-23T22:49:16.764Z,10.20
2022-12-23T22:51:45.575Z,10.20
2022-12-23T22:54:15.834Z,10.20
2022-12-23T22:56:45.815Z,10.20
2022-12-23T22:59:22.255Z,10.20
2022-12-23T23:01:51.675Z,10.20
2022-12-23T23:04:20.136Z,10.20
2022-12-23T23:06:48.441Z,10.20
2022-12-23T23:09:20.735Z,10.20
2022-12-23T23:11:50.058Z,10.20
2022-12-23T23:14:18.731Z,10.20
2022-12-23T23:16:47.374Z,10.20
2022-12-23T23:19:17.128Z,10.20
2022-12-23T23:21:45.519Z,10.10
2022-12-23T23:24:13.921Z,10.10
2022-12-23T23:26:43.545Z,10.10
2022-12-23T23:29:11.919Z,10.10
2022-12-23T23:31:42.419Z,10.00
2022-12-23T23:34:11.868Z,10.00
2022-12-23T23:36:40.338Z,10.00
2022-12-23T23:39:08.769Z,10.00
2022-12-23T23:41:37.019Z,10.00
2022-12-23T23:44:06.899Z,10.00
2022-12-23T23:46:35.427Z,10.00
2022-12-23T23:49:03.922Z,9.90
2022-12-23T23:51:32.455Z,9.90
2022-12-23T23:54:00.810Z,9.80
2022-12-23T23:56:35.853Z,9.80
2022-12-23T23:59:08.452Z,9.80
